• Join FlightAware (Why Join?)
  • Login
  • US Flag 
05:51PM EDT


 

Airport Tracker/Info


-or-


 

Live Flight TrackerFlight Track Log ✈ DAL1906 ✈ 13-May-2012 ✈ KLAX - KDTW

Flight Track Log - Related Links

Times and Time Zones

All times are in EDT time to prevent confusion due to time zone crossing. See the DAL1906 flight status page for this flight to view local times or setup timezone preferences in your user account.

Time Position Orientation Groundspeed Altitude Reporting Facility
EDT Latitude Longitude Course Direction KTS MPH feet Rate Location/Type
08:08PM 33.9158 -118.5192 214° Southwest 200 230 3,500  Level Los Angeles Center
08:09PM 33.8714 -118.5556 107° East 226 260 5,500 2,100 Climbing Los Angeles Center
08:10PM 33.8558 -118.4925 34° Northeast 113 130 7,700 2,100 Climbing Los Angeles Center
08:11PM 33.9194 -118.4417 50° Northeast 141 162 9,800 1,620 Climbing Los Angeles Center
08:12PM 33.9731 -118.3656 55° Northeast 228 262 11,000 1,500 Climbing Los Angeles Center
08:13PM 34.0269 -118.2717 55° Northeast 293 337 12,800 1,680 Climbing Los Angeles Center
08:14PM 34.0722 -118.1928 56° Northeast 324 373 14,400 1,860 Climbing Los Angeles Center
08:15PM 34.1344 -118.0811 56° Northeast 349 402 16,900 1,680 Climbing Los Angeles Center
08:16PM 34.2097 -117.9475 55° Northeast 377 434 18,200 1,560 Climbing Los Angeles Center
08:17PM 34.2803 -117.8256 58° Northeast 411 473 20,100 1,740 Climbing Los Angeles Center
08:18PM 34.3467 -117.6989 56° Northeast 428 493 21,700 1,560 Climbing Los Angeles Center
08:19PM 34.4192 -117.5692 57° Northeast 452 520 23,300 1,500 Climbing Los Angeles Center
08:20PM 34.4917 -117.4317 50° Northeast 467 537 24,800 1,440 Climbing Los Angeles Center
08:21PM 34.5808 -117.3044 49° Northeast 481 554 26,200 1,500 Climbing Los Angeles Center
08:22PM 34.6800 -117.1644 48° Northeast 496 571 27,900 1,680 Climbing Los Angeles Center
08:23PM 34.7708 -117.0417 50° Northeast 496 571 29,600 2,040 Climbing Los Angeles Center
08:24PM 34.8553 -116.9186 48° Northeast 489 563 32,000 1,800 Climbing Los Angeles Center
08:25PM 34.9414 -116.8003 50° Northeast 476 548 33,200 1,080 Climbing Los Angeles Center
08:26PM 35.0233 -116.6819 48° Northeast 465 535 34,200 900 Climbing Los Angeles Center
08:27PM 35.1094 -116.5631 49° Northeast 460 529 35,000 360 Climbing Los Angeles Center
08:28PM 35.1933 -116.4442 49° Northeast 460 529 35,000  Level Los Angeles Center
08:29PM 35.2792 -116.3222 50° Northeast 460 529 35,000  Level Los Angeles Center
08:30PM 35.3628 -116.2003 50° Northeast 460 529 35,000  Level Los Angeles Center
08:31PM 35.4464 -116.0781 50° Northeast 460 529 35,000  Level Los Angeles Center
08:32PM 35.5297 -115.9581 55° Northeast 460 529 35,000 300 Level Los Angeles Center
08:33PM 35.6044 -115.8275 66° East 460 529 35,600 900 Climbing Los Angeles Center
08:34PM 35.6561 -115.6842 67° East 455 524 36,800 660 Climbing Los Angeles Center
08:35PM 35.7078 -115.5356 66° East 455 524 37,000 60 Climbing Los Angeles Center
08:36PM 35.7611 -115.3892 67° East 460 529 37,000  Level Los Angeles Center
08:37PM 35.8125 -115.2378 66° East 465 535 37,000  Level Los Angeles Center
08:38PM 35.8675 -115.0858 66° East 470 541 37,000  Level Los Angeles Center
08:39PM 35.9225 -114.9364 66° East 475 547 37,000  Level Los Angeles Center
08:40PM 35.9753 -114.7867 68° East 480 552 37,000  Level Los Angeles Center
08:41PM 36.0256 -114.6344 67° East 480 552 37,000  Level Los Angeles Center
08:42PM 36.0778 -114.4819 66° East 480 552 37,000  Level Los Angeles Center
08:43PM 36.1300 -114.3344 66° East 480 552 37,000  Level Los Angeles Center
08:44PM 36.1842 -114.1839 68° East 480 552 37,000  Level Los Angeles Center
08:45PM 36.2339 -114.0333 67° East 475 547 37,000  Level Los Angeles Center
08:46PM 36.2853 -113.8853 68° East 475 547 37,000  Level Los Angeles Center
08:47PM 36.3347 -113.7342 66° East 475 547 37,000  Level Los Angeles Center
08:48PM 36.3858 -113.5883 68° East 464 534 37,000  Level Los Angeles Center
08:49PM 36.4328 -113.4422 67° East 464 534 37,000  Level Los Angeles Center
08:50PM 36.4836 -113.2908 69° East 464 534 37,000  Level Los Angeles Center
08:51PM 36.5300 -113.1367 67° East 464 534 37,000  Level Los Angeles Center
08:52PM 36.5806 -112.9847 67° East 464 534 37,000  Level Los Angeles Center
08:53PM 36.6308 -112.8353 69° East 464 534 37,000  Level Los Angeles Center
08:54PM 36.6692 -112.7119 68° East 464 534 37,000  Level Los Angeles Center
08:55PM 36.7228 -112.5439 67° East 464 534 37,000  Level Los Angeles Center
08:56PM 36.7725 -112.3939 68° East 464 534 37,000  Level Los Angeles Center
08:57PM 36.8219 -112.2411 69° East 464 534 37,000  Level Los Angeles Center
08:58PM 36.8592 -112.1211 68° East 475 547 37,000  Level Denver Center
08:59PM 36.9092 -111.9658 68° East 476 548 37,000  Level Denver Center
09:00PM 36.9681 -111.7800 68° East 475 547 37,000  Level Denver Center
09:01PM 37.0164 -111.6264 68° East 472 543 37,000  Level Denver Center
09:02PM 37.0653 -111.4728 70° East 471 542 37,000  Level Denver Center
09:03PM 37.1100 -111.3208 69° East 466 536 37,000  Level Denver Center
09:04PM 37.1586 -111.1642 69° East 473 544 37,000  Level Denver Center
09:05PM 37.2067 -111.0067 69° East 476 548 37,000  Level Denver Center
09:06PM 37.2544 -110.8497 69° East 476 548 37,000  Level Denver Center
09:07PM 37.3017 -110.6931 69° East 474 545 37,000  Level Denver Center
09:08PM 37.3500 -110.5347 70° East 478 550 37,000  Level Denver Center
09:09PM 37.3967 -110.3769 69° East 476 548 37,000  Level Denver Center
09:11PM 37.4528 -110.1878 69° East 475 547 37,000  Level Denver Center
09:12PM 37.5011 -110.0261 70° East 474 545 37,000  Level Denver Center
09:13PM 37.5450 -109.8758 70° East 476 548 37,000  Level Denver Center
09:14PM 37.5953 -109.7033 70° East 472 543 37,000  Level Denver Center
09:15PM 37.6386 -109.5558 70° East 469 540 37,000  Level Denver Center
09:16PM 37.6808 -109.4081 70° East 468 539 37,000  Level Denver Center
09:17PM 37.7306 -109.2356 70° East 467 537 37,000  Level Denver Center
09:18PM 37.7725 -109.0906 70° East 461 531 37,000  Level Denver Center
09:19PM 37.8206 -108.9197 70° East 461 531 37,000  Level Denver Center
09:20PM 37.8622 -108.7725 71° East 463 533 37,000  Level Denver Center
09:21PM 37.9103 -108.5992 70° East 465 535 37,000  Level Denver Center
09:22PM 37.9525 -108.4497 70° East 467 537 37,000  Level Denver Center
09:23PM 38.0006 -108.2781 71° East 466 536 37,000  Level Denver Center
09:24PM 38.0403 -108.1292 71° East 466 536 37,000  Level Denver Center
09:25PM 38.0881 -107.9542 70° East 468 539 37,000  Level Denver Center
09:26PM 38.1294 -107.8069 71° East 468 539 37,000  Level Denver Center
09:27PM 38.1750 -107.6342 71° East 465 535 37,000  Level Denver Center
09:28PM 38.2153 -107.4867 71° East 463 533 37,000  Level Denver Center
09:29PM 38.2614 -107.3147 72° East 462 532 37,000  Level Denver Center
09:30PM 38.2997 -107.1661 71° East 462 532 37,000  Level Denver Center
09:31PM 38.3458 -106.9925 71° East 464 534 37,000  Level Denver Center
09:32PM 38.3847 -106.8439 72° East 463 533 37,000  Level Denver Center
09:33PM 38.4297 -106.6694 72° East 465 535 37,000  Level Denver Center
09:34PM 38.4750 -106.4942 72° East 467 537 37,000  Level Denver Center
09:35PM 38.5142 -106.3439 72° East 467 537 37,000  Level Denver Center
09:36PM 38.5592 -106.1672 72° East 469 540 37,000  Level Denver Center
09:38PM 38.6003 -106.0022 72° East 469 540 37,000  Level Denver Center
09:39PM 38.6411 -105.8419 72° East 466 536 37,000  Level Denver Center
09:40PM 38.6806 -105.6850 72° East 463 533 37,000  Level Denver Center
09:41PM 38.7200 -105.5269 73° East 462 532 37,000  Level Denver Center
09:42PM 38.7589 -105.3667 72° East 467 537 37,000  Level Denver Center
09:43PM 38.7975 -105.2092 73° East 463 533 37,000  Level Denver Center
09:44PM 38.8419 -105.0244 73° East 463 533 37,000  Level Denver Center
09:45PM 38.8806 -104.8658 72° East 464 534 37,000  Level Denver Center
09:46PM 38.9194 -104.7075 73° East 464 534 37,000  Level Denver Center
09:47PM 38.9569 -104.5497 73° East 462 532 37,000  Level Denver Center
09:48PM 39.0000 -104.3664 73° East 460 529 37,000  Level Denver Center
09:49PM 39.0369 -104.2086 73° East 460 529 37,000  Level Denver Center
09:50PM 39.0742 -104.0517 73° East 457 526 37,000  Level Denver Center
09:51PM 39.1111 -103.8931 73° East 460 529 37,000  Level Denver Center
09:52PM 39.1483 -103.7331 74° East 462 532 37,000  Level Denver Center
09:53PM 39.1903 -103.5456 74° East 464 534 37,000  Level Denver Center
09:54PM 39.2261 -103.3864 74° East 462 532 37,000  Level Denver Center
09:55PM 39.2628 -103.2258 74° East 463 533 37,000  Level Denver Center
09:56PM 39.2994 -103.0639 74° East 465 535 37,000  Level Denver Center
09:57PM 39.3361 -102.9003 74° East 470 541 37,000  Level Denver Center
09:58PM 39.3767 -102.7108 74° East 467 537 37,000  Level Denver Center
09:59PM 39.4122 -102.5467 74° East 470 541 37,000  Level Denver Center
10:00PM 39.4500 -102.3772 75° East 469 540 37,000  Level Denver Center
10:01PM 39.4825 -102.2225 74° East 468 539 37,000  Level Denver Center
10:03PM 39.5206 -102.0447 75° East 463 533 37,000  Level Denver Center
10:04PM 39.5525 -101.8925 74° East 459 528 37,000  Level Denver Center
10:05PM 39.5906 -101.7156 75° East 458 527 37,000  Level Denver Center
10:06PM 39.6214 -101.5631 75° East 458 527 37,000  Level Denver Center
10:07PM 39.6586 -101.3858 75° East 457 526 37,000  Level Denver Center
10:08PM 39.6900 -101.2317 75° East 461 531 37,000  Level Denver Center
10:09PM 39.7272 -101.0525 76° East 462 532 37,000  Level Denver Center
10:10PM 39.7631 -100.8711 75° East 465 535 37,000  Level Denver Center
10:11PM 39.7939 -100.7169 75° East 463 533 37,000  Level Denver Center
10:12PM 39.8297 -100.5367 75° East 463 533 37,000  Level Denver Center
10:13PM 39.8606 -100.3822 76° East 463 533 37,000  Level Denver Center
10:14PM 39.8903 -100.2289 76° East 460 529 37,000  Level Denver Center
10:15PM 39.9281 -100.0353 76° East 460 529 37,000  Level Denver Center
10:16PM 39.9592 -99.8736 76° East 461 531 37,000  Level Denver Center
10:17PM 39.9894 -99.7125 76° East 460 529 37,000  Level Denver Center
10:18PM 40.0206 -99.5508 76° East 461 531 37,000  Level Denver Center
10:19PM 40.0511 -99.3881 76° East 462 532 37,000  Level Denver Center
10:20PM 40.0867 -99.1936 76° East 461 531 37,000  Level Denver Center
10:21PM 40.1167 -99.0336 77° East 458 527 37,000  Level Denver Center
10:22PM 40.1456 -98.8725 76° East 456 525 37,000  Level Denver Center
10:23PM 40.1756 -98.7133 77° East 462 532 37,000  Level Minneapolis Center
10:24PM 40.2042 -98.5528 77° East 462 532 37,000  Level Minneapolis Center
10:25PM 40.2322 -98.3922 76° East 462 532 37,000  Level Minneapolis Center
10:26PM 40.2622 -98.2344 77° East 457 526 37,000  Level Minneapolis Center
10:27PM 40.2903 -98.0708 77° East 451 519 37,000  Level Minneapolis Center
10:28PM 40.3178 -97.9125 77° East 446 513 37,000  Level Minneapolis Center
10:29PM 40.3450 -97.7539 77° East 446 513 37,000  Level Minneapolis Center
10:30PM 40.3742 -97.5928 78° East 446 513 37,000  Level Minneapolis Center
10:31PM 40.4008 -97.4314 79° East 446 513 37,000  Level Minneapolis Center
10:32PM 40.4231 -97.2775 79° East 439 505 37,000  Level Minneapolis Center
10:33PM 40.4475 -97.1156 77° East 439 505 37,000  Level Minneapolis Center
10:34PM 40.4756 -96.9567 78° East 445 512 37,000  Level Minneapolis Center
10:35PM 40.5014 -96.7972 77° East 451 519 37,000  Level Minneapolis Center
10:36PM 40.5292 -96.6325 78° East 451 519 37,000  Level Minneapolis Center
10:37PM 40.5547 -96.4675 78° East 451 519 37,000  Level Minneapolis Center
10:38PM 40.5800 -96.3050 78° East 451 519 37,000  Level Minneapolis Center
10:39PM 40.6047 -96.1450 79° East 446 513 37,000  Level Minneapolis Center
10:40PM 40.6297 -95.9797 78° East 451 519 37,000  Level Minneapolis Center
10:41PM 40.6561 -95.8169 79° East 451 519 37,000  Level Minneapolis Center
10:42PM 40.6781 -95.6675 78° East 456 525 37,000  Level Minneapolis Center
10:43PM 40.7042 -95.5017 79° East 456 525 37,000  Level Minneapolis Center
10:44PM 40.7281 -95.3386 78° East 461 531 37,000  Level Minneapolis Center
10:45PM 40.7536 -95.1725 79° East 461 531 37,000  Level Minneapolis Center
10:46PM 40.7769 -95.0061 79° East 461 531 37,000  Level Minneapolis Center
10:47PM 40.8019 -94.8428 80° East 456 525 37,000  Level Minneapolis Center
10:48PM 40.8250 -94.6761 80° East 456 525 37,000  Level Minneapolis Center
10:49PM 40.8475 -94.5122 79° East 456 525 37,000  Level Minneapolis Center
10:50PM 40.8719 -94.3456 79° East 461 531 37,000  Level Minneapolis Center
10:52PM 40.9156 -94.0519 81° East 462 532 37,000  Level Chicago Center
10:53PM 40.9369 -93.8803 79° East 467 537 37,000  Level Chicago Center
10:54PM 40.9603 -93.7142 79° East 462 532 37,000  Level Chicago Center
10:55PM 40.9853 -93.5425 79° East 468 539 37,000  Level Chicago Center
10:56PM 41.0103 -93.3706 80° East 468 539 37,000  Level Chicago Center
10:57PM 41.0328 -93.2011 79° East 468 539 37,000  Level Chicago Center
10:58PM 41.0572 -93.0292 79° East 473 544 37,000  Level Chicago Center
10:59PM 41.0814 -92.8569 80° East 473 544 37,000  Level Chicago Center
11:00PM 41.1033 -92.6844 79° East 473 544 37,000  Level Chicago Center
11:01PM 41.1269 -92.5147 81° East 468 539 37,000  Level Chicago Center
11:02PM 41.1483 -92.3419 80° East 468 539 37,000  Level Chicago Center
11:03PM 41.1714 -92.1664 81° East 475 547 37,000  Level Chicago Center
11:04PM 41.1922 -91.9989 80° East 470 541 37,000  Level Chicago Center
11:05PM 41.2147 -91.8286 81° East 464 534 37,000  Level Chicago Center
11:06PM 41.2347 -91.6639 82° East 464 534 37,000  Level Chicago Center
11:07PM 41.2550 -91.4794 81° East 464 534 37,000  Level Chicago Center
11:08PM 41.2722 -91.3392 79° East 469 540 37,000  Level Chicago Center
11:09PM 41.3006 -91.1436 82° East 463 533 37,000  Level Chicago Center
11:10PM 41.3175 -90.9756 81° East 463 533 37,000  Level Chicago Center
11:11PM 41.3386 -90.8044 81° East 468 539 37,000  Level Chicago Center
11:12PM 41.3594 -90.6336 82° East 463 533 37,000  Level Chicago Center
11:13PM 41.3781 -90.4594 82° East 463 533 37,000  Level Chicago Center
11:14PM 41.3961 -90.2911 81° East 463 533 37,000  Level Chicago Center
11:15PM 41.4161 -90.1169 80° East 463 533 37,000  Level Chicago Center
11:16PM 41.4381 -89.9425 83° East 468 539 37,000  Level Chicago Center
11:17PM 41.4533 -89.7711 81° East 468 539 37,000  Level Chicago Center
11:18PM 41.4728 -89.5992 82° East 468 539 37,000  Level Chicago Center
11:19PM 41.4897 -89.4275 82° East 468 539 37,000  Level Chicago Center
11:20PM 41.5083 -89.2528 83° East 468 539 37,000  Level Chicago Center
11:21PM 41.5228 -89.1031 82° East 463 533 37,000  Level Chicago Center
11:22PM 41.5408 -88.9311 83° East 463 533 37,000  Level Chicago Center
11:23PM 41.5569 -88.7533 82° East 470 541 37,000  Level Chicago Center
11:24PM 41.5744 -88.5811 82° East 470 541 37,000  Level Chicago Center
11:25PM 41.5919 -88.4031 82° East 470 541 37,000  Level Chicago Center
11:26PM 41.6114 -88.2278 83° East 475 547 37,000  Level Chicago Center
11:27PM 41.6281 -88.0469 84° East 481 554 37,000  Level Chicago Center
11:28PM 41.6406 -87.8717 83° East 481 554 37,000  Level Chicago Center
11:29PM 41.6569 -87.6936 83° East 481 554 37,000  Level Chicago Center
11:30PM 41.6728 -87.5153 80° East 481 554 37,000  Level Chicago Center
11:31PM 41.6950 -87.3394 78° East 481 554 37,000  Level Chicago Center
11:32PM 41.7231 -87.1603 81° East 486 559 37,000  Level Chicago Center
11:33PM 41.7444 -86.9872 77° East 486 559 37,000  Level Chicago Center
11:34PM 41.7742 -86.8106 79° East 486 559 37,000  Level Chicago Center
11:35PM 41.8011 -86.6200 79° East 486 559 37,000 -360 Level Chicago Center
11:36PM 41.8258 -86.4433 79° East 481 554 36,300 -900 Descending Chicago Center
11:37PM 41.8506 -86.2667 80° East 481 554 35,300 -960 Descending Chicago Center
11:38PM 41.8747 -86.0869 80° East 486 559 34,400 -1,500 Descending Chicago Center
11:39PM 41.8986 -85.9072 79° East 486 559 32,400 -2,580 Descending Chicago Center
11:40PM 41.9242 -85.7244 80° East 486 559 29,300 -2,820 Descending Chicago Center
11:42PM 41.9703 -85.3764 80° East 477 549 24,100 -2,580 Descending Cleveland Center
11:43PM 41.9917 -85.2103 80° East 459 528 21,600 -2,220 Descending Cleveland Center
11:44PM 42.0100 -85.0661 81° East 445 512 19,700 -1,320 Descending Cleveland Center
11:45PM 42.0283 -84.9164 81° East 418 481 19,000 -840 Descending Cleveland Center
11:46PM 42.0464 -84.7667 81° East 409 471 18,100 -900 Descending Cleveland Center
11:47PM 42.0642 -84.6167 81° East 404 465 17,300 -900 Descending Cleveland Center
11:48PM 42.0817 -84.4750 82° East 404 465 16,300 -1,020 Descending Cleveland Center
11:49PM 42.0967 -84.3333 80° East 387 445 15,300 -1,440 Descending Cleveland Center
11:50PM 42.1158 -84.1889 87° East 370 426 13,500 -2,580 Descending Cleveland Center
11:51PM 42.1203 -84.0492 96° East 365 420 10,200 -1,800 Descending Cleveland Center
11:52PM 42.1094 -83.9197 95° East 354 407 9,900 -540 Descending Cleveland Center
11:53PM 42.1022 -83.8128 114° Southeast 306 352 9,200 -1,380 Descending Cleveland Center
11:54PM 42.0714 -83.7189 105° East 269 310 7,200 -1,380 Descending Cleveland Center
11:55PM 42.0531 -83.6258 97° East 263 303 6,200 -1,140 Descending Cleveland Center
11:56PM 42.0450 -83.5331 51° Northeast 223 257 4,700 -1,440 Descending Cleveland Center
11:57PM 42.0797 -83.4761 30° Northeast 190 219 3,400 -1,140 Descending Cleveland Center
11:58PM 42.1308 -83.4364 29° Northeast 169 194 2,300 -960 Descending Cleveland Center
11:59PM 42.1511 -83.4214 28° Northeast 157 181 1,800 -960 Descending FAA TRACON SMA TRACON (SMA)
12:00AM 42.1778 -83.4019 28° Northeast 161 185 1,200 -780 Descending FAA TRACON SMA TRACON (SMA)
12:00AM 42.2006 -83.3853 28° Northeast 160 184 800 -600 Descending FAA TRACON SMA TRACON (SMA)